Aérodrome :
LOGIN :

S'inscrire | Disclaimer

   EN    FR    IT 

 










Légende :    VFR   VFR Marginal   IFR   IFR Intensif   IFR Très Intensif
Visi : 
Plafond : 
>= 8 km
>= 3000ft
5 à 8 km
1000 à 3000 ft
1500m à 5 km
500 à 1000 ft
800 à 1500m
200 à 500 ft
< 800m
< 200 ft
Symboles :   Orages  Brouillard  Fortes neiges  Fortes précipitations  Vent > 20 kt
SIGMETs :   Divers  Orages  Givrage  Turbulence  Onde Orograph.  Cendres Volcan.






- Altitude de l'aérodrome : 172 ft
- Code IATA : LPI


ESSL - Saab

DERNIER METAR :
  • 251220Z 09013KT 9999 -SN BKN037 OVC057 03/M00 Q0988 R11/19//95

METARs EXPIRÉS :
  • 251150Z 10012KT 9999 FEW016 BKN070 OVC210 03/01 Q0989 R11/19//95
  • 251120Z 11016KT 9999 -DZ BKN020 BKN034 OVC053 03/01 Q0989 R11/19//95
  • 251050Z 09013KT 9999 -RA BKN015 BKN040 OVC088 03/01 Q0989 R11/19//95
  • 251020Z 09011KT 9999 FEW014 BKN074 03/01 Q0990 R11/09//95
  • 250950Z 09011KT 9999 SCT012 BKN049 03/01 Q0990 R11/09//95

TAF TAF ESSL
Valide du 25 à 12h jusqu'au 25 à 21h UTC


251130Z 2512/2521 09016KT 6000 -SNRA SCT012 BKN018
TEMPO 2512/2521 08012G22KT 1800 SNRA BKN011



MET'MAP, la Météo Aéronautique d'un coup d'oeil ! - Copyright ORBIFLY Décembre 2007 - Disclaimer

ORBIFLY MET'MAP TEAM :

Programmation & Développement : Alexandra Zaïnal
Sur une idée originale de : Baudouin d'Aumeries
Assistance à la programmation : Marc-Olivier Méhu
Soutien technique & logistique : Manuel Goepfert

Contact : metmap@orbifly.com




SOURCES & CREDITS :

   NOAA